Time;durP1;ratioP1;P1;durP2;ratioP2;P2;SDS_P1;SDS_P2;PMS_P1;PMS_P2;Temp;Humidity;BMP_temperature;BMP_pressure;BME280_temperature;BME280_humidity;BME280_pressure;Samples;Min_cycle;Max_cycle;Signal;HPM_P1;HPM_P2
2021/10/17 00:00:58;;;;;;;1.15;1.02;;;20.20;48.00;;;24.29;31.64;101567.16;5075482;28;20471;-9
2021/10/17 00:03:24;;;;;;;1.85;1.13;;;20.20;48.00;;;24.31;31.46;101567.91;5074227;28;20074;-9
2021/10/17 00:05:49;;;;;;;1.67;1.00;;;20.20;48.00;;;24.33;31.76;101567.78;5093478;28;20056;-9
2021/10/17 00:08:15;;;;;;;1.35;0.90;;;20.20;47.90;;;24.31;31.66;101572.38;5093437;28;20055;-8
2021/10/17 00:10:41;;;;;;;1.13;1.02;;;20.20;48.00;;;24.29;31.67;101574.28;5093446;28;20036;-9
2021/10/17 00:13:09;;;;;;;1.98;1.10;;;20.20;48.00;;;24.29;31.91;101569.81;5092534;28;20442;-9
2021/10/17 00:15:39;;;;;;;1.40;1.00;;;20.20;48.00;;;24.30;31.63;101574.19;5074902;28;20044;-9
2021/10/17 00:18:10;;;;;;;1.90;1.40;;;20.20;48.00;;;24.29;31.84;101579.63;5093008;28;20055;-9
2021/10/17 00:20:37;;;;;;;1.00;0.90;;;20.20;48.10;;;24.27;31.65;101569.03;5093155;28;20503;-9
2021/10/17 00:23:03;;;;;;;0.93;0.80;;;20.20;48.10;;;24.28;31.71;101570.75;5092970;28;20048;-9
2021/10/17 00:25:30;;;;;;;1.55;1.10;;;20.20;48.00;;;24.27;31.92;101562.84;5092928;28;20125;-9
2021/10/17 00:27:55;;;;;;;1.10;1.00;;;20.20;47.90;;;24.29;31.58;101567.16;5092885;28;20055;-9
2021/10/17 00:30:32;;;;;;;0.73;0.73;;;20.20;47.90;;;24.31;31.67;101567.03;5075089;28;20082;-9
2021/10/17 00:32:58;;;;;;;1.00;0.80;;;20.30;47.80;;;24.31;31.68;101567.03;5092915;28;20048;-9
2021/10/17 00:35:24;;;;;;;1.73;1.20;;;20.30;47.70;;;24.31;31.63;101562.53;5092795;28;20119;-9
2021/10/17 00:37:50;;;;;;;1.52;1.10;;;20.30;47.70;;;24.29;31.75;101559.13;5092499;28;20138;-9
2021/10/17 00:40:19;;;;;;;1.10;0.80;;;20.30;47.70;;;24.28;31.83;101553.88;5091305;28;20047;-9
2021/10/17 00:42:47;;;;;;;1.52;1.02;;;20.40;47.60;;;24.31;31.59;101549.19;5092555;28;20052;-9
2021/10/17 00:45:17;;;;;;;1.08;0.93;;;20.40;47.50;;;24.31;31.79;101551.00;5092737;28;20189;-9
2021/10/17 00:47:43;;;;;;;1.50;1.10;;;20.40;47.40;;;24.31;31.71;101545.66;5089943;28;20132;-9
2021/10/17 00:50:11;;;;;;;1.55;0.75;;;20.40;47.20;;;24.33;31.50;101547.25;5092910;28;20051;-9
2021/10/17 00:52:40;;;;;;;1.25;0.95;;;20.40;47.10;;;24.33;31.60;101544.59;5092835;28;20059;-9
2021/10/17 00:55:07;;;;;;;1.50;0.90;;;20.40;47.10;;;24.35;31.51;101548.00;5074438;28;20044;-8
2021/10/17 00:57:33;;;;;;;0.95;0.88;;;20.40;47.10;;;24.36;31.70;101540.88;5092440;28;20055;-9
2021/10/17 00:59:59;;;;;;;1.25;0.90;;;20.40;47.10;;;24.34;31.57;101545.44;5091569;28;20488;-9
2021/10/17 01:02:25;;;;;;;1.60;1.17;;;20.40;47.20;;;24.34;31.63;101538.28;5092428;28;20059;-9
2021/10/17 01:04:51;;;;;;;2.20;1.08;;;20.40;47.20;;;24.33;31.48;101525.88;5074150;28;20105;-9
2021/10/17 01:07:16;;;;;;;1.85;1.42;;;20.40;47.20;;;24.36;31.56;101528.34;5092446;28;20127;-8
2021/10/17 01:09:43;;;;;;;1.45;0.98;;;20.40;47.20;;;24.35;31.51;101540.00;5092292;28;20052;-9
2021/10/17 01:12:13;;;;;;;1.92;0.70;;;20.40;47.20;;;24.34;31.42;101530.28;5074003;28;20374;-21
2021/10/17 01:14:39;;;;;;;1.02;0.93;;;20.40;47.20;;;24.36;31.56;101532.84;5073581;28;20052;-9
2021/10/17 01:17:05;;;;;;;1.85;1.17;;;20.40;47.20;;;24.34;31.59;101530.28;5072984;28;20045;-8
2021/10/17 01:19:31;;;;;;;0.95;0.88;;;20.40;47.10;;;24.33;31.51;101523.22;5072291;28;20139;-9
2021/10/17 01:22:09;;;;;;;1.42;1.00;;;20.40;47.00;;;24.33;31.44;101525.88;5074411;28;20480;-9
2021/10/17 01:24:35;;;;;;;1.08;0.98;;;20.40;47.10;;;24.33;31.38;101528.56;5058113;28;20055;-8
2021/10/17 01:27:00;;;;;;;1.20;1.08;;;20.40;47.10;;;24.34;31.44;101527.59;5095770;28;20048;-9
2021/10/17 01:29:26;;;;;;;1.30;0.98;;;20.40;47.10;;;24.33;31.35;101525.03;5095520;28;20446;-8
2021/10/17 01:31:54;;;;;;;1.80;1.17;;;20.40;47.30;;;24.32;31.62;101513.47;5077857;28;20047;-9
2021/10/17 01:34:24;;;;;;;2.47;1.00;;;20.30;47.50;;;24.35;31.40;101515.09;5094361;28;20396;-9
2021/10/17 01:36:51;;;;;;;1.10;0.88;;;20.30;47.40;;;24.31;31.52;101509.09;5095606;28;20044;-9
2021/10/17 01:39:20;;;;;;;1.30;0.90;;;20.20;47.50;;;24.30;31.58;101502.03;5073681;28;20045;-9
2021/10/17 01:41:47;;;;;;;1.50;1.15;;;20.20;47.50;;;24.32;31.42;101508.13;5077893;28;20532;-8
2021/10/17 01:44:24;;;;;;;1.13;0.88;;;20.20;47.50;;;24.29;31.40;101500.31;5077792;28;20052;-9
2021/10/17 01:46:50;;;;;;;1.77;1.13;;;20.30;47.40;;;24.32;31.38;101501.94;5077780;28;20078;-9
2021/10/17 01:49:15;;;;;;;1.70;1.20;;;20.30;47.50;;;24.33;31.36;101506.31;5077183;28;20048;-9
2021/10/17 01:51:46;;;;;;;1.10;0.80;;;20.30;47.40;;;24.32;31.51;101499.25;5077733;28;20048;-9
2021/10/17 01:54:12;;;;;;;2.17;1.27;;;20.30;47.40;;;24.32;31.38;101501.94;5095203;28;20079;-9
2021/10/17 01:56:38;;;;;;;1.50;1.20;;;20.30;47.40;;;24.29;31.49;101497.66;5077321;28;20052;-9
2021/10/17 01:59:07;;;;;;;1.85;1.30;;;20.20;47.50;;;24.31;31.62;101497.56;5075529;28;20130;-9
2021/10/17 02:01:44;;;;;;;1.27;1.00;;;20.20;47.60;;;24.32;31.43;101501.94;5076314;28;20056;-9
2021/10/17 02:04:10;;;;;;;1.85;1.10;;;20.20;47.70;;;24.30;31.34;101493.16;5095100;28;20074;-8
2021/10/17 02:06:36;;;;;;;1.23;1.13;;;20.20;47.60;;;24.30;31.34;101488.66;5077005;28;20116;-9
2021/10/17 02:09:03;;;;;;;1.17;1.08;;;20.20;47.60;;;24.30;31.33;101487.81;5077090;28;20044;-9
2021/10/17 02:11:29;;;;;;;1.52;1.00;;;20.20;47.50;;;24.27;31.59;101480.84;5095544;28;20040;-9
2021/10/17 02:13:56;;;;;;;1.75;0.80;;;20.30;47.90;;;24.28;31.40;101484.41;5075563;28;20051;-9
2021/10/17 02:16:22;;;;;;;1.08;1.00;;;20.30;47.30;;;24.29;31.36;101484.28;5077345;28;20044;-9
2021/10/17 02:18:49;;;;;;;1.02;0.90;;;20.30;47.20;;;24.30;31.32;101488.66;5076622;28;20048;-9
2021/10/17 02:21:16;;;;;;;0.80;0.80;;;20.30;47.10;;;24.31;31.46;101481.53;5076466;28;20473;-9
2021/10/17 02:23:43;;;;;;;1.80;1.10;;;20.40;47.00;;;24.29;31.32;101478.06;5076637;28;20478;-9
2021/10/17 02:26:09;;;;;;;1.00;0.93;;;20.40;46.90;;;24.32;31.47;101480.53;5075050;28;20067;-9
2021/10/17 02:28:55;;;;;;;1.80;1.10;;;20.40;47.00;;;24.30;31.38;101475.28;5094739;28;20511;-9
2021/10/17 02:31:21;;;;;;;0.85;0.70;;;20.40;46.80;;;24.32;31.50;101472.53;5076911;28;20545;-9
2021/10/17 02:33:51;;;;;;;1.10;1.00;;;20.40;46.80;;;24.32;31.45;101477.88;5076326;28;20059;-9
2021/10/17 02:36:17;;;;;;;1.73;1.17;;;20.40;46.90;;;24.33;31.46;101477.78;5093018;28;20465;-9
2021/10/17 02:38:42;;;;;;;1.75;1.08;;;20.40;46.90;;;24.31;31.17;101476.19;5093103;28;20403;-9
2021/10/17 02:41:08;;;;;;;1.40;1.17;;;20.40;46.80;;;24.29;31.43;101473.59;5074563;28;20117;-9
2021/10/17 02:43:34;;;;;;;2.00;1.15;;;20.40;46.90;;;24.34;31.26;101481.28;5076590;28;20484;-9
2021/10/17 02:46:01;;;;;;;1.70;1.05;;;20.40;46.80;;;24.31;31.40;101476.19;5094360;28;20055;-9
2021/10/17 02:48:27;;;;;;;1.13;0.90;;;20.40;46.70;;;24.31;31.16;101471.69;5093425;28;20052;-8
2021/10/17 02:50:55;;;;;;;1.70;1.00;;;20.40;46.80;;;24.32;31.42;101464.50;5076290;28;20481;-9
2021/10/17 02:53:20;;;;;;;1.77;1.10;;;20.40;46.70;;;24.31;31.28;101461.00;5076580;28;20055;-9
2021/10/17 02:55:47;;;;;;;1.98;1.05;;;20.40;46.70;;;24.33;31.38;101474.25;5074287;28;20049;-9
2021/10/17 02:58:12;;;;;;;1.40;1.30;;;20.40;46.70;;;24.34;31.15;101470.59;5094351;28;20514;-9
2021/10/17 03:00:40;;;;;;;1.25;0.90;;;20.40;46.70;;;24.34;31.17;101473.28;5093040;28;20048;-9
2021/10/17 03:03:07;;;;;;;1.45;1.00;;;20.40;46.80;;;24.32;31.38;101459.16;5075741;28;20048;-9
2021/10/17 03:05:42;;;;;;;1.05;0.85;;;20.40;46.70;;;24.35;31.30;101461.63;5076045;28;20549;-9
2021/10/17 03:08:07;;;;;;;1.52;1.10;;;20.40;46.70;;;24.32;31.35;101461.84;5075857;28;20521;-9
2021/10/17 03:10:33;;;;;;;2.58;1.25;;;20.40;46.70;;;24.34;31.40;101466.13;5076396;28;20060;-9
2021/10/17 03:12:59;;;;;;;1.10;0.90;;;20.40;46.80;;;24.32;31.34;101462.69;5074286;28;20131;-9
2021/10/17 03:15:25;;;;;;;1.63;1.02;;;20.40;46.70;;;24.33;31.28;101458.22;5092615;28;20488;-9
2021/10/17 03:17:53;;;;;;;1.38;0.98;;;20.40;46.70;;;24.32;31.23;101470.69;5074801;28;20156;-9
2021/10/17 03:20:20;;;;;;;1.27;1.02;;;20.40;46.70;;;24.32;31.26;101465.34;5075699;28;20135;-8
2021/10/17 03:22:46;;;;;;;1.60;1.15;;;20.40;46.60;;;24.33;31.24;101467.09;5074229;28;20098;-9
2021/10/17 03:25:12;;;;;;;0.90;0.90;;;20.40;46.60;;;24.33;31.15;101464.41;5094203;28;20040;-9
2021/10/17 03:27:38;;;;;;;1.73;1.25;;;20.40;46.70;;;24.36;31.06;101468.72;5075411;28;20059;-8
2021/10/17 03:30:06;;;;;;;1.00;0.90;;;20.40;46.80;;;24.33;31.06;101461.72;5093000;28;20044;-9
2021/10/17 03:32:32;;;;;;;2.80;0.95;;;20.40;46.70;;;24.33;31.11;101463.56;5075497;28;20044;-8
2021/10/17 03:34:58;;;;;;;1.40;0.90;;;20.40;46.70;;;24.34;31.32;101468.81;5076016;28;20048;-9
2021/10/17 03:37:23;;;;;;;1.65;0.95;;;20.40;46.70;;;24.32;31.07;101465.34;5075326;28;20500;-8
2021/10/17 03:39:53;;;;;;;1.25;1.10;;;20.40;46.70;;;24.34;31.23;101462.59;5074624;28;20053;-9
2021/10/17 03:42:21;;;;;;;1.48;1.00;;;20.40;46.70;;;24.33;31.25;101460.88;5092264;28;20087;-9
2021/10/17 03:44:47;;;;;;;2.15;0.90;;;20.40;46.70;;;24.33;31.08;101472.44;5075993;28;20490;-9
2021/10/17 03:47:13;;;;;;;1.75;1.05;;;20.40;46.70;;;24.33;31.13;101466.22;5091456;28;20036;-9
2021/10/17 03:49:40;;;;;;;1.13;0.90;;;20.40;46.70;;;24.36;31.22;101468.72;5093818;28;20084;-9
2021/10/17 03:52:06;;;;;;;1.42;1.00;;;20.40;46.60;;;24.33;31.07;101464.41;5092091;28;20052;-9
2021/10/17 03:54:32;;;;;;;1.30;1.00;;;20.40;46.60;;;24.36;31.15;101480.25;5075596;28;20136;-9
2021/10/17 03:56:58;;;;;;;1.55;0.93;;;20.40;46.40;;;24.34;31.20;101468.81;5092025;28;20474;-9
2021/10/17 03:59:23;;;;;;;1.40;1.00;;;20.40;46.40;;;24.32;31.03;101476.03;5075276;28;20076;-9
2021/10/17 04:01:50;;;;;;;1.55;1.00;;;20.40;46.60;;;24.33;31.05;101476.94;5073886;28;20446;-9
2021/10/17 04:04:17;;;;;;;1.05;0.88;;;20.40;46.50;;;24.35;31.15;101483.88;5075464;28;20407;-9
2021/10/17 04:06:43;;;;;;;3.53;1.35;;;20.40;46.50;;;24.34;31.12;101481.28;5075263;28;20057;-9
2021/10/17 04:09:27;;;;;;;2.08;1.35;;;20.40;46.40;;;24.36;31.16;101480.25;5074716;28;20539;-9
2021/10/17 04:11:54;;;;;;;1.90;1.20;;;20.40;46.40;;;24.32;30.86;101473.38;5074842;28;20050;-9
2021/10/17 04:14:20;;;;;;;1.55;1.15;;;20.40;46.30;;;24.33;31.14;101474.25;5093263;28;20138;-8
2021/10/17 04:16:46;;;;;;;1.80;1.20;;;20.40;46.30;;;24.34;30.98;101484.84;5091546;28;20044;-9
2021/10/17 04:19:12;;;;;;;1.88;1.10;;;20.40;46.30;;;24.34;31.19;101476.81;5091648;28;20142;-9
2021/10/17 04:21:38;;;;;;;2.38;1.25;;;20.40;46.40;;;24.31;30.98;101470.84;5074867;28;20097;-9
2021/10/17 04:24:04;;;;;;;1.90;1.15;;;20.40;46.50;;;24.32;30.93;101469.84;5074784;28;20056;-9
2021/10/17 04:26:31;;;;;;;1.13;1.02;;;20.40;46.40;;;24.33;31.06;101474.25;5074700;28;20040;-9
2021/10/17 04:28:57;;;;;;;1.63;1.00;;;20.50;46.40;;;24.34;31.05;101473.28;5074586;28;20400;-9
2021/10/17 04:31:23;;;;;;;2.00;1.00;;;20.40;46.30;;;24.32;31.06;101461.84;5075273;28;20134;-9
2021/10/17 04:33:49;;;;;;;1.10;1.00;;;20.50;46.40;;;24.34;31.06;101481.28;5074912;28;20094;-9
2021/10/17 04:36:15;;;;;;;1.80;0.90;;;20.50;46.40;;;24.34;30.98;101482.16;5073947;28;20059;-9
2021/10/17 04:38:41;;;;;;;1.65;1.02;;;20.40;46.40;;;24.32;30.82;101478.72;5073654;28;20048;-9
2021/10/17 04:41:07;;;;;;;1.35;1.00;;;20.40;46.40;;;24.33;31.06;101482.28;5092685;28;20052;-9
2021/10/17 04:43:33;;;;;;;1.33;1.15;;;20.40;46.50;;;24.32;30.94;101492.09;5092751;28;20048;-9
2021/10/17 04:46:00;;;;;;;1.10;0.90;;;20.30;46.70;;;24.31;30.91;101482.38;5074440;28;20050;-9
2021/10/17 04:48:25;;;;;;;1.20;0.93;;;20.30;46.70;;;24.32;31.14;101481.38;5073251;28;20147;-9
2021/10/17 04:50:51;;;;;;;1.33;1.00;;;20.30;46.70;;;24.30;30.88;101480.66;5072768;28;20053;-9
2021/10/17 04:53:17;;;;;;;2.05;1.20;;;20.30;46.70;;;24.31;31.07;101489.53;5092554;28;20135;-9
2021/10/17 04:55:43;;;;;;;1.83;1.05;;;20.30;46.70;;;24.30;30.89;101494.00;5092512;28;20048;-9
2021/10/17 04:58:11;;;;;;;1.05;0.90;;;20.20;46.80;;;24.29;31.09;101486.09;5089583;28;20041;-9
2021/10/17 05:00:38;;;;;;;1.00;0.85;;;20.30;46.70;;;24.29;31.10;101484.28;5076733;28;20044;-9
2021/10/17 05:03:04;;;;;;;2.30;1.10;;;20.30;46.70;;;24.29;31.16;101484.28;5077426;28;20052;-9
2021/10/17 05:05:31;;;;;;;1.17;1.08;;;20.30;46.60;;;24.30;31.08;101485.13;5078354;28;20086;-9
2021/10/17 05:07:58;;;;;;;1.30;1.02;;;20.40;46.60;;;24.31;31.10;101495.72;5076339;28;20052;-9
2021/10/17 05:10:25;;;;;;;1.20;0.90;;;20.40;46.50;;;24.29;30.92;101481.63;5077789;28;20044;-9
2021/10/17 05:12:51;;;;;;;1.33;0.90;;;20.40;46.40;;;24.29;31.16;101492.31;5076786;28;20048;-9
2021/10/17 05:15:18;;;;;;;1.27;1.17;;;20.40;46.50;;;24.28;31.08;101487.91;5078231;28;20127;-9
2021/10/17 05:17:44;;;;;;;1.42;1.02;;;20.40;46.50;;;24.30;30.87;101486.00;5095504;28;20174;-9
2021/10/17 05:20:11;;;;;;;1.17;0.98;;;20.40;46.50;;;24.31;30.95;101490.38;5077625;28;20151;-9
2021/10/17 05:22:37;;;;;;;1.73;1.02;;;20.40;46.50;;;24.30;30.90;101485.13;5077563;28;20051;-9
2021/10/17 05:25:03;;;;;;;1.02;0.98;;;20.30;46.50;;;24.28;30.97;101481.72;5095787;28;20044;-9
2021/10/17 05:27:30;;;;;;;1.52;0.98;;;20.40;46.50;;;24.29;31.14;101486.09;5094393;28;20472;-9
2021/10/17 05:29:56;;;;;;;1.70;1.10;;;20.40;46.50;;;24.31;30.88;101492.22;5077154;28;20059;-9
2021/10/17 05:32:23;;;;;;;1.88;0.90;;;20.40;46.50;;;24.30;31.15;101495.84;5077364;28;20426;-9
2021/10/17 05:34:50;;;;;;;1.92;1.00;;;20.40;46.50;;;24.31;30.93;101498.41;5077394;28;20043;-9
2021/10/17 05:37:16;;;;;;;1.17;0.90;;;20.40;46.50;;;24.31;30.97;101500.22;5077425;28;20044;-9
2021/10/17 05:39:42;;;;;;;1.50;1.02;;;20.40;46.40;;;24.32;30.84;101496.56;5076905;28;20044;-8
2021/10/17 05:42:08;;;;;;;1.80;1.25;;;20.40;46.50;;;24.28;31.08;101492.41;5077359;28;20043;-9
2021/10/17 05:44:33;;;;;;;1.10;1.00;;;20.30;46.50;;;24.31;31.05;101498.41;5077280;28;20074;-8
2021/10/17 05:46:59;;;;;;;1.50;1.20;;;20.30;46.60;;;24.30;30.94;101512.72;5095815;28;20392;-9
2021/10/17 05:49:25;;;;;;;1.65;1.17;;;20.30;46.50;;;24.31;30.96;101516.25;5076116;28;20454;-9
2021/10/17 05:51:51;;;;;;;1.83;1.00;;;20.30;46.70;;;24.29;30.89;101521.72;5094582;28;20044;-9
2021/10/17 05:54:16;;;;;;;1.45;1.20;;;20.30;46.60;;;24.28;31.01;101527.16;5094438;28;20050;-9
2021/10/17 05:56:44;;;;;;;1.65;1.20;;;20.30;46.60;;;24.29;30.88;101520.81;5077056;28;20051;-9
2021/10/17 05:59:10;;;;;;;1.20;1.00;;;20.30;46.60;;;24.28;30.99;101517.31;5075799;28;20044;-9
2021/10/17 06:01:37;;;;;;;1.83;1.10;;;20.30;46.70;;;24.28;31.07;101519.13;5077059;28;20044;-9
2021/10/17 06:04:08;;;;;;;2.35;0.75;;;20.30;46.50;;;24.33;30.84;101519.69;5094302;28;20047;-9
2021/10/17 06:06:54;;;;;;;1.13;0.85;;;20.40;46.40;;;24.31;30.73;101521.59;5077188;28;20079;-9
2021/10/17 06:09:20;;;;;;;1.02;0.90;;;20.40;46.40;;;24.31;30.79;101522.47;5095418;28;20076;-9
2021/10/17 06:11:47;;;;;;;2.03;1.17;;;20.40;46.40;;;24.28;30.96;101530.66;5076798;28;20054;-9
2021/10/17 06:14:13;;;;;;;2.15;1.27;;;20.40;46.40;;;24.29;30.95;101544.88;5094969;28;20044;-9
2021/10/17 06:16:39;;;;;;;1.60;1.00;;;20.30;46.40;;;24.29;30.78;101553.78;5094891;28;20055;-9
2021/10/17 06:19:05;;;;;;;1.50;1.00;;;20.30;46.50;;;24.29;30.98;101547.56;5076724;28;20051;-8
2021/10/17 06:21:42;;;;;;;1.40;1.05;;;20.40;46.50;;;24.31;30.97;101548.34;5077387;28;20063;-9
2021/10/17 06:24:08;;;;;;;1.48;1.05;;;20.40;46.40;;;24.28;30.80;101546.72;5075046;28;20052;-9
2021/10/17 06:26:34;;;;;;;1.10;1.00;;;20.40;46.40;;;24.28;30.88;101541.38;5076648;28;20098;-9
2021/10/17 06:29:00;;;;;;;2.13;1.10;;;20.40;46.40;;;24.29;30.88;101537.75;5075750;28;20052;-9
2021/10/17 06:31:26;;;;;;;1.10;1.00;;;20.40;46.40;;;24.28;31.06;101543.19;5076765;28;20553;-9
2021/10/17 06:33:56;;;;;;;1.50;1.17;;;20.40;46.30;;;24.31;30.94;101553.69;5075346;28;20384;-9
2021/10/17 06:36:22;;;;;;;2.40;1.10;;;20.40;46.40;;;24.27;30.79;101539.63;5076477;28;20044;-9
2021/10/17 06:38:48;;;;;;;1.42;1.10;;;20.30;46.40;;;24.29;31.03;101553.78;5094554;28;20044;-9
2021/10/17 06:41:13;;;;;;;1.10;0.85;;;20.30;46.40;;;24.28;30.97;101548.53;5076753;28;20418;-9
2021/10/17 06:43:39;;;;;;;1.85;1.17;;;20.40;46.30;;;24.31;30.91;101548.34;5074510;28;20453;-9
2021/10/17 06:46:12;;;;;;;1.75;1.20;;;20.40;46.30;;;24.32;30.93;101550.88;5073234;28;20140;-8
2021/10/17 06:48:38;;;;;;;1.85;1.02;;;20.40;46.20;;;24.32;31.03;101558.03;5073989;28;20040;-9
2021/10/17 06:51:04;;;;;;;1.92;1.17;;;20.40;46.80;;;24.32;30.95;101563.41;5075931;28;20063;-9
2021/10/17 06:53:30;;;;;;;1.63;1.05;;;20.40;46.30;;;24.29;31.00;101559.13;5058214;28;20401;-9
2021/10/17 06:55:56;;;;;;;2.40;1.20;;;20.40;46.30;;;24.30;30.88;101555.47;5076209;28;20079;-9
2021/10/17 06:58:24;;;;;;;1.50;1.30;;;20.40;46.20;;;24.28;31.01;101559.22;5074255;28;20405;-9
2021/10/17 07:00:50;;;;;;;2.25;1.20;;;20.40;46.20;;;24.30;30.83;101560.81;5076600;28;20918;-9
2021/10/17 07:03:17;;;;;;;2.05;1.40;;;20.40;46.30;;;24.33;30.86;101554.44;5074908;28;20048;-9
2021/10/17 07:06:05;;;;;;;0.95;0.85;;;20.40;46.10;;;24.31;30.93;101551.00;5076078;28;20074;-9
2021/10/17 07:08:32;;;;;;;2.17;1.13;;;20.40;46.10;;;24.34;30.71;101554.34;5074975;28;20052;-9
2021/10/17 07:11:00;;;;;;;2.15;1.15;;;20.40;46.10;;;24.31;30.90;101549.19;5075908;28;20560;-9
2021/10/17 07:13:51;;;;;;;1.55;1.33;;;20.40;46.10;;;24.34;30.91;101554.34;5093425;28;20072;-9
2021/10/17 07:16:17;;;;;;;1.25;1.08;;;20.40;46.20;;;24.33;30.84;101551.75;5076447;28;20055;-9
2021/10/17 07:18:43;;;;;;;1.15;1.02;;;20.40;46.20;;;24.31;30.77;101548.34;5073712;28;20036;-9
2021/10/17 07:21:10;;;;;;;1.52;1.10;;;20.40;46.10;;;24.34;30.84;101546.31;5092641;28;20143;-8
2021/10/17 07:23:36;;;;;;;1.45;1.10;;;20.40;46.10;;;24.36;30.69;101560.44;5074691;28;20055;-8
2021/10/17 07:26:03;;;;;;;2.95;1.10;;;20.40;46.10;;;24.33;30.64;101557.09;5074163;28;20056;-9
2021/10/17 07:28:28;;;;;;;1.88;1.23;;;20.40;46.10;;;24.34;30.94;101561.47;5093709;28;20097;-9
2021/10/17 07:31:06;;;;;;;1.50;1.10;;;20.40;46.10;;;24.36;30.87;101567.59;5073674;28;20072;-9
2021/10/17 07:33:57;;;;;;;1.00;0.90;;;20.40;46.10;;;24.34;30.88;101556.13;5090897;28;20056;-9
2021/10/17 07:36:23;;;;;;;1.23;1.10;;;20.40;46.10;;;24.34;30.87;101548.09;5076060;28;20109;-9
2021/10/17 07:38:56;;;;;;;1.48;1.33;;;20.40;46.20;;;24.36;30.87;101556.91;5075464;28;20083;-9
2021/10/17 07:41:24;;;;;;;1.63;1.35;;;20.40;46.30;;;24.35;30.84;101552.50;5075491;28;20093;-9
2021/10/17 07:43:54;;;;;;;2.28;1.38;;;20.40;46.30;;;24.37;30.74;101564.81;5075417;28;20071;-9
2021/10/17 07:46:20;;;;;;;1.13;0.82;;;20.40;46.30;;;24.33;30.74;101555.28;5091177;28;20045;-9
2021/10/17 07:48:46;;;;;;;1.83;1.10;;;20.40;46.30;;;24.37;30.66;101566.63;5073189;28;20442;-9
2021/10/17 07:51:13;;;;;;;1.42;0.90;;;20.40;46.30;;;24.33;30.62;101560.63;5075274;28;20134;-9
2021/10/17 07:53:39;;;;;;;1.48;1.23;;;20.40;46.20;;;24.34;30.83;101575.72;5075238;28;20040;-9
2021/10/17 07:56:05;;;;;;;1.05;0.95;;;20.40;46.20;;;24.34;30.67;101572.16;5092145;28;20055;-9
2021/10/17 07:58:32;;;;;;;1.95;1.30;;;20.40;46.40;;;24.31;30.75;101575.91;5059182;28;20047;-9
2021/10/17 08:00:58;;;;;;;1.40;1.30;;;20.30;46.30;;;24.31;30.78;101586.59;5091565;28;20121;-9
2021/10/17 08:03:47;;;;;;;1.20;1.05;;;20.40;46.40;;;24.33;30.95;101584.69;5093028;28;20143;-9
2021/10/17 08:06:24;;;;;;;0.80;0.80;;;20.40;46.30;;;24.34;30.64;101585.53;5072781;28;20484;-9
2021/10/17 08:08:50;;;;;;;1.80;1.30;;;20.40;46.80;;;24.33;30.68;101584.69;5072960;28;20044;-9
2021/10/17 08:11:18;;;;;;;1.25;1.00;;;20.40;46.20;;;24.36;30.79;101588.97;5074853;28;20565;-9
2021/10/17 08:13:45;;;;;;;1.40;1.20;;;20.40;46.20;;;24.33;30.83;101579.34;5092264;28;20130;-9
2021/10/17 08:16:12;;;;;;;1.73;1.30;;;20.40;46.10;;;24.36;30.90;101583.63;5073820;28;20045;-9
2021/10/17 08:18:45;;;;;;;1.88;1.27;;;20.40;46.20;;;24.34;30.72;101575.72;5074038;28;20477;-9
2021/10/17 08:21:11;;;;;;;1.10;0.90;;;20.40;46.10;;;24.34;30.63;101577.50;5072248;28;20040;-9
2021/10/17 08:23:44;;;;;;;1.55;1.30;;;20.40;46.10;;;24.33;30.67;101576.66;5074288;28;20594;-9
2021/10/17 08:26:10;;;;;;;1.67;1.20;;;20.50;46.10;;;24.38;30.81;101587.91;5090357;28;20052;-9
2021/10/17 08:28:36;;;;;;;1.17;0.88;;;20.40;46.00;;;24.38;30.69;101587.91;5074838;28;20153;-9
2021/10/17 08:31:09;;;;;;;1.50;1.10;;;20.50;46.10;;;24.37;30.78;101586.22;5075146;28;20373;-9
2021/10/17 08:33:35;;;;;;;1.80;1.30;;;20.50;46.10;;;24.40;30.72;101585.13;5074579;28;20046;-9
2021/10/17 08:36:01;;;;;;;1.02;0.90;;;20.50;46.00;;;24.38;30.93;101589.72;5073811;28;20461;-9
2021/10/17 08:38:27;;;;;;;1.95;1.10;;;20.40;46.00;;;24.37;30.68;101588.88;5074504;28;20488;-9
2021/10/17 08:40:57;;;;;;;2.40;1.00;;;20.40;46.10;;;24.39;30.64;101588.75;5074603;28;20484;-9
2021/10/17 08:43:41;;;;;;;1.20;1.10;;;20.50;46.10;;;24.38;30.63;101593.25;5074740;28;20496;-9
2021/10/17 08:46:19;;;;;;;1.10;0.88;;;20.40;46.10;;;24.41;30.61;101605.56;5075177;28;20084;-9
2021/10/17 08:48:55;;;;;;;1.38;1.10;;;20.50;46.20;;;24.39;30.62;101607.47;5057200;28;20040;-9
2021/10/17 08:51:26;;;;;;;1.25;1.15;;;20.50;46.10;;;24.39;30.64;101608.34;5091665;28;20130;-9
2021/10/17 08:54:04;;;;;;;2.33;1.77;;;20.40;46.20;;;24.37;30.60;101607.59;5074742;28;20090;-9
2021/10/17 08:56:32;;;;;;;1.73;1.10;;;20.40;46.30;;;24.38;30.65;101613.78;5072631;28;20497;-9
2021/10/17 08:58:59;;;;;;;1.60;0.98;;;20.40;46.10;;;24.37;30.68;101612.94;5089590;28;20045;-8
2021/10/17 09:01:43;;;;;;;3.22;1.08;;;20.40;46.10;;;24.36;30.83;101611.22;5074806;28;20465;-9
2021/10/17 09:04:15;;;;;;;1.48;1.23;;;20.40;46.00;;;24.38;30.92;101611.13;5074642;28;20044;-9
2021/10/17 09:07:22;;;;;;;1.10;1.00;;;20.50;46.10;;;24.36;30.88;101607.69;5075702;28;20048;-9
2021/10/17 09:10:16;;;;;;;1.70;1.10;;;20.50;46.10;;;24.38;30.71;101614.63;5072263;28;20110;-9
2021/10/17 09:12:46;;;;;;;1.53;1.10;;;20.50;46.20;;;24.37;30.69;101604.91;5092156;28;20048;-9
2021/10/17 09:15:28;;;;;;;2.08;1.50;;;20.50;46.20;;;24.38;30.80;101606.63;5092317;28;20488;-9
2021/10/17 09:18:22;;;;;;;2.28;1.20;;;20.40;46.10;;;24.40;30.81;101611.88;5091814;28;20060;-8
2021/10/17 09:21:00;;;;;;;2.28;1.15;;;20.50;46.00;;;24.39;30.74;101604.78;5090935;28;20052;-9
2021/10/17 09:23:25;;;;;;;2.05;1.08;;;20.50;46.00;;;24.44;30.68;101612.53;5092255;28;20052;-9
2021/10/17 09:26:02;;;;;;;1.33;0.93;;;20.50;46.00;;;24.40;30.61;101610.03;5092262;28;20047;-9
2021/10/17 09:28:30;;;;;;;2.28;1.50;;;20.50;46.00;;;24.40;30.82;101601.16;5090667;28;20056;-8
2021/10/17 09:31:01;;;;;;;1.52;1.10;;;20.50;46.10;;;24.40;30.90;101604.69;5092095;28;20066;-9
2021/10/17 09:33:27;;;;;;;1.27;0.97;;;20.40;46.10;;;24.40;30.72;101595.81;5092396;28;20052;-9
2021/10/17 09:35:54;;;;;;;2.20;1.15;;;20.40;46.10;;;24.39;30.52;101594.09;5073876;28;20052;-9
2021/10/17 09:38:40;;;;;;;1.40;0.88;;;20.50;46.10;;;24.42;30.61;101608.16;5092315;28;20059;-8
2021/10/17 09:41:32;;;;;;;1.48;1.20;;;20.50;46.10;;;24.40;30.82;101599.34;5074410;28;20468;-9
2021/10/17 09:44:01;;;;;;;2.53;1.30;;;20.50;46.00;;;24.41;30.51;101598.41;5074205;28;20044;-9
2021/10/17 09:46:53;;;;;;;1.20;1.10;;;20.50;46.00;;;24.41;30.81;101598.41;5094496;28;20044;-9
2021/10/17 09:49:23;;;;;;;1.00;0.93;;;20.50;46.10;;;24.41;30.59;101592.22;5095657;28;20079;-8
2021/10/17 09:51:48;;;;;;;1.70;1.00;;;20.50;46.00;;;24.39;30.54;101600.31;5095734;28;20376;-9
2021/10/17 09:54:20;;;;;;;1.70;1.13;;;20.50;46.00;;;24.39;30.60;101602.13;5095584;28;20158;-9
2021/10/17 09:56:45;;;;;;;;;;;20.50;46.10;;;24.55;30.42;101605.53;5095591;28;20454;-9
2021/10/17 09:59:13;;;;;;;1.05;0.93;;;20.50;46.00;;;24.46;30.54;101594.56;5095494;28;19916;-9
2021/10/17 10:01:41;;;;;;;1.15;0.90;;;20.50;45.90;;;24.45;30.58;101615.09;5095270;28;20048;-9
2021/10/17 10:04:10;;;;;;;2.13;1.23;;;20.50;45.90;;;24.41;30.58;101609.09;5095624;28;20399;-9
2021/10/17 10:06:36;;;;;;;1.92;1.30;;;20.50;46.00;;;24.41;30.58;101608.25;5095152;28;20123;-9
2021/10/17 10:09:08;;;;;;;1.98;1.40;;;20.50;46.00;;;24.43;30.67;101611.66;5095376;28;20086;-9
2021/10/17 10:11:35;;;;;;;2.00;1.35;;;20.50;46.00;;;24.42;30.48;101600.13;5095125;28;20043;-9
2021/10/17 10:14:04;;;;;;;3.03;1.58;;;20.50;45.90;;;24.43;30.66;101600.97;5094915;28;20094;-9
2021/10/17 10:16:31;;;;;;;1.52;1.15;;;20.50;46.00;;;24.42;30.78;101605.47;5093657;28;20123;-9
2021/10/17 10:19:08;;;;;;;2.40;1.35;;;20.50;45.90;;;24.47;30.63;101601.63;5094877;28;20092;-9
2021/10/17 10:21:38;;;;;;;1.20;1.10;;;20.50;45.90;;;24.44;30.63;101599.16;5095171;28;20052;-9
2021/10/17 10:24:08;;;;;;;1.33;1.10;;;20.60;45.90;;;24.48;30.47;101620.25;5095515;28;20074;-9
2021/10/17 10:26:35;;;;;;;1.87;1.17;;;20.60;45.90;;;24.48;30.46;101614.91;5095259;28;20044;-9